DLH241 EDDL-EDDF
Flight info
| Callsign | DLH241 |
|---|---|
| Flight time | 0h 28m |
| Altitude | 21000 |
| Route | COL5Z/05R COL T911 ROLIS ROLIS5A/25R |
| Aircraft | A20N/M-SDE2E3FGHIRWXY/LB1 |
Departure
| Time | 2026-05-05 19:55 |
|---|---|
| Airport | Düsseldorf Airport (EDDL) |
Arrival
| Time | 2026-05-05 20:23 |
|---|---|
| Airport | Frankfurt Main Airport (EDDF) |
| Time | Latitude | Longitude | Altitude | Speed | Heading |
|---|---|---|---|---|---|
| 2026-05-05 18:58 | 51.28068 | 6.76534 | 128 ft | 0 kts | 97° |
| 2026-05-05 19:40 | 51.28068 | 6.76529 | 128 ft | 1 kts | 97° |
| 2026-05-05 19:40 | 51.28069 | 6.76517 | 128 ft | 1 kts | 97° |
| 2026-05-05 19:41 | 51.28070 | 6.76504 | 123 ft | 1 kts | 97° |
| 2026-05-05 19:41 | 51.28071 | 6.76492 | 127 ft | 1 kts | 84° |
| 2026-05-05 19:41 | 51.28069 | 6.76479 | 126 ft | 1 kts | 44° |
| 2026-05-05 19:41 | 51.28067 | 6.76475 | 126 ft | 0 kts | 28° |
| 2026-05-05 19:42 | 51.28072 | 6.76475 | 125 ft | 1 kts | 5° |
| 2026-05-05 19:42 | 51.28075 | 6.76464 | 123 ft | 0 kts | 303° |
| 2026-05-05 19:43 | 51.28077 | 6.76460 | 123 ft | 0 kts | 303° |
| 2026-05-05 19:44 | 51.28077 | 6.76458 | 124 ft | 2 kts | 303° |
| 2026-05-05 19:44 | 51.28109 | 6.76385 | 125 ft | 10 kts | 308° |
| 2026-05-05 19:44 | 51.28153 | 6.76298 | 125 ft | 10 kts | 307° |
| 2026-05-05 19:44 | 51.28196 | 6.76224 | 126 ft | 7 kts | 304° |
| 2026-05-05 19:45 | 51.28198 | 6.76164 | 126 ft | 5 kts | 254° |
| 2026-05-05 19:45 | 51.28182 | 6.76118 | 125 ft | 4 kts | 233° |
| 2026-05-05 19:45 | 51.28146 | 6.76057 | 127 ft | 14 kts | 231° |
| 2026-05-05 19:45 | 51.28080 | 6.75924 | 128 ft | 16 kts | 232° |
| 2026-05-05 19:46 | 51.28014 | 6.75786 | 129 ft | 15 kts | 233° |
| 2026-05-05 19:46 | 51.27952 | 6.75651 | 128 ft | 15 kts | 238° |
| 2026-05-05 19:46 | 51.27978 | 6.75536 | 127 ft | 11 kts | 335° |
| 2026-05-05 19:46 | 51.27991 | 6.75527 | 125 ft | 0 kts | 335° |
| 2026-05-05 19:53 | 51.27998 | 6.75522 | 128 ft | 4 kts | 336° |
| 2026-05-05 19:53 | 51.28056 | 6.75499 | 125 ft | 11 kts | 354° |
| 2026-05-05 19:53 | 51.28117 | 6.75528 | 123 ft | 8 kts | 49° |
| 2026-05-05 19:53 | 51.28148 | 6.75588 | 127 ft | 0 kts | 50° |
| 2026-05-05 19:54 | 51.28150 | 6.75592 | 127 ft | 5 kts | 51° |
| 2026-05-05 19:54 | 51.28313 | 6.75923 | 129 ft | 72 kts | 51° |
| 2026-05-05 19:54 | 51.28742 | 6.76802 | 126 ft | 126 kts | 52° |
| 2026-05-05 19:54 | 51.29350 | 6.78090 | 234 ft | 158 kts | 51° |
| 2026-05-05 19:55 | 51.29994 | 6.79523 | 812 ft | 155 kts | 51° |
| 2026-05-05 19:55 | 51.30614 | 6.80841 | 1754 ft | 143 kts | 51° |
| 2026-05-05 19:55 | 51.31256 | 6.82161 | 2379 ft | 160 kts | 52° |
| 2026-05-05 19:55 | 51.32038 | 6.83749 | 2852 ft | 202 kts | 53° |
| 2026-05-05 19:56 | 51.32930 | 6.85624 | 3522 ft | 223 kts | 53° |
| 2026-05-05 19:56 | 51.33905 | 6.87719 | 4163 ft | 246 kts | 54° |
| 2026-05-05 19:56 | 51.34882 | 6.90096 | 4745 ft | 263 kts | 65° |
| 2026-05-05 19:56 | 51.35290 | 6.92892 | 4957 ft | 264 kts | 90° |
| 2026-05-05 19:57 | 51.35049 | 6.95799 | 5003 ft | 265 kts | 100° |
| 2026-05-05 19:57 | 51.34727 | 6.98715 | 4991 ft | 264 kts | 99° |
| 2026-05-05 19:57 | 51.34418 | 7.01607 | 4996 ft | 263 kts | 99° |
| 2026-05-05 19:57 | 51.34116 | 7.04508 | 4992 ft | 265 kts | 99° |
| 2026-05-05 19:58 | 51.33817 | 7.07435 | 5265 ft | 268 kts | 99° |
| 2026-05-05 19:58 | 51.33516 | 7.10401 | 6152 ft | 270 kts | 99° |
| 2026-05-05 19:58 | 51.33215 | 7.13375 | 7235 ft | 272 kts | 100° |
| 2026-05-05 19:58 | 51.32550 | 7.16183 | 8195 ft | 278 kts | 124° |
| 2026-05-05 19:59 | 51.31160 | 7.18293 | 9160 ft | 283 kts | 150° |
| 2026-05-05 19:59 | 51.29349 | 7.19606 | 10094 ft | 289 kts | 151° |
| 2026-05-05 19:59 | 51.27719 | 7.21654 | 10604 ft | 310 kts | 134° |
| 2026-05-05 19:59 | 51.26244 | 7.24338 | 11000 ft | 332 kts | 130° |
| 2026-05-05 20:00 | 51.24728 | 7.27199 | 11748 ft | 340 kts | 131° |
| 2026-05-05 20:00 | 51.23145 | 7.30027 | 12673 ft | 343 kts | 133° |
| 2026-05-05 20:00 | 51.21499 | 7.32807 | 13562 ft | 347 kts | 134° |
| 2026-05-05 20:00 | 51.19798 | 7.35579 | 14366 ft | 350 kts | 135° |
| 2026-05-05 20:01 | 51.18071 | 7.38346 | 15167 ft | 353 kts | 135° |
| 2026-05-05 20:01 | 51.16328 | 7.41116 | 15922 ft | 357 kts | 135° |
| 2026-05-05 20:01 | 51.14550 | 7.43939 | 16642 ft | 362 kts | 136° |
| 2026-05-05 20:01 | 51.12753 | 7.46791 | 17388 ft | 366 kts | 136° |
| 2026-05-05 20:02 | 51.10939 | 7.49670 | 18119 ft | 370 kts | 136° |
| 2026-05-05 20:02 | 51.09130 | 7.52537 | 18784 ft | 373 kts | 136° |
| 2026-05-05 20:02 | 51.07287 | 7.55456 | 19446 ft | 376 kts | 136° |
| 2026-05-05 20:02 | 51.05423 | 7.58405 | 20123 ft | 379 kts | 136° |
| 2026-05-05 20:03 | 51.03551 | 7.61365 | 20798 ft | 381 kts | 136° |
| 2026-05-05 20:03 | 51.01736 | 7.64228 | 21432 ft | 384 kts | 136° |
| 2026-05-05 20:03 | 50.99832 | 7.67230 | 22074 ft | 387 kts | 136° |
| 2026-05-05 20:03 | 50.97909 | 7.70257 | 22616 ft | 391 kts | 136° |
| 2026-05-05 20:04 | 50.95967 | 7.73312 | 22777 ft | 392 kts | 136° |
| 2026-05-05 20:04 | 50.94027 | 7.76359 | 22810 ft | 392 kts | 136° |
| 2026-05-05 20:04 | 50.92092 | 7.79394 | 22812 ft | 392 kts | 136° |
| 2026-05-05 20:04 | 50.90145 | 7.82445 | 22806 ft | 392 kts | 136° |
| 2026-05-05 20:05 | 50.88206 | 7.85479 | 22803 ft | 392 kts | 136° |
| 2026-05-05 20:05 | 50.86262 | 7.88517 | 22805 ft | 393 kts | 136° |
| 2026-05-05 20:05 | 50.84313 | 7.91558 | 22803 ft | 392 kts | 136° |
| 2026-05-05 20:05 | 50.82366 | 7.94594 | 22802 ft | 393 kts | 136° |
| 2026-05-05 20:06 | 50.80425 | 7.97615 | 22640 ft | 390 kts | 136° |
| 2026-05-05 20:06 | 50.78497 | 8.00614 | 22147 ft | 388 kts | 136° |
| 2026-05-05 20:06 | 50.76598 | 8.03563 | 21547 ft | 386 kts | 136° |
| 2026-05-05 20:06 | 50.74689 | 8.06526 | 20909 ft | 384 kts | 136° |
| 2026-05-05 20:07 | 50.72785 | 8.09476 | 20276 ft | 381 kts | 136° |
| 2026-05-05 20:07 | 50.70897 | 8.12397 | 19673 ft | 379 kts | 136° |
| 2026-05-05 20:07 | 50.69021 | 8.15297 | 19063 ft | 377 kts | 136° |
| 2026-05-05 20:07 | 50.67154 | 8.18182 | 18479 ft | 374 kts | 137° |
| 2026-05-05 20:08 | 50.65298 | 8.21043 | 17878 ft | 372 kts | 137° |
| 2026-05-05 20:08 | 50.63452 | 8.23887 | 17261 ft | 369 kts | 137° |
| 2026-05-05 20:08 | 50.61624 | 8.26701 | 16648 ft | 366 kts | 137° |
| 2026-05-05 20:08 | 50.59804 | 8.29498 | 16031 ft | 364 kts | 137° |
| 2026-05-05 20:09 | 50.57999 | 8.32270 | 15467 ft | 362 kts | 137° |
| 2026-05-05 20:09 | 50.56199 | 8.35028 | 14883 ft | 360 kts | 137° |
| 2026-05-05 20:09 | 50.54411 | 8.37768 | 14324 ft | 358 kts | 137° |
| 2026-05-05 20:09 | 50.52631 | 8.40491 | 13761 ft | 356 kts | 137° |
| 2026-05-05 20:10 | 50.50858 | 8.43199 | 13169 ft | 354 kts | 138° |
| 2026-05-05 20:10 | 50.49100 | 8.45883 | 12632 ft | 351 kts | 138° |
| 2026-05-05 20:10 | 50.47504 | 8.48317 | 12125 ft | 348 kts | 138° |
| 2026-05-05 20:10 | 50.45846 | 8.50842 | 11605 ft | 346 kts | 138° |
| 2026-05-05 20:11 | 50.44129 | 8.53455 | 11113 ft | 342 kts | 138° |
| 2026-05-05 20:11 | 50.42456 | 8.56000 | 10967 ft | 328 kts | 138° |
| 2026-05-05 20:11 | 50.40852 | 8.58441 | 10832 ft | 314 kts | 138° |
| 2026-05-05 20:11 | 50.39318 | 8.60770 | 10704 ft | 301 kts | 138° |
| 2026-05-05 20:12 | 50.37841 | 8.63011 | 10535 ft | 290 kts | 139° |
| 2026-05-05 20:12 | 50.36420 | 8.65164 | 10428 ft | 277 kts | 139° |
| 2026-05-05 20:12 | 50.35064 | 8.67217 | 10324 ft | 265 kts | 139° |
| 2026-05-05 20:12 | 50.33755 | 8.69195 | 10095 ft | 259 kts | 139° |
| 2026-05-05 20:13 | 50.32454 | 8.71156 | 9748 ft | 258 kts | 139° |
| 2026-05-05 20:13 | 50.31160 | 8.73104 | 9378 ft | 257 kts | 139° |
| 2026-05-05 20:13 | 50.29874 | 8.75040 | 9049 ft | 256 kts | 139° |
| 2026-05-05 20:13 | 50.28600 | 8.76958 | 8765 ft | 251 kts | 139° |
| 2026-05-05 20:14 | 50.27351 | 8.78840 | 8444 ft | 250 kts | 139° |
| 2026-05-05 20:14 | 50.26087 | 8.80741 | 8037 ft | 252 kts | 139° |
| 2026-05-05 20:14 | 50.25106 | 8.82966 | 7695 ft | 256 kts | 115° |
| 2026-05-05 20:14 | 50.24456 | 8.85559 | 7369 ft | 256 kts | 114° |
| 2026-05-05 20:15 | 50.23820 | 8.88151 | 7055 ft | 254 kts | 114° |
| 2026-05-05 20:15 | 50.23188 | 8.90723 | 6752 ft | 253 kts | 113° |
| 2026-05-05 20:15 | 50.22557 | 8.93281 | 6457 ft | 252 kts | 114° |
| 2026-05-05 20:15 | 50.21723 | 8.95626 | 6151 ft | 245 kts | 137° |
| 2026-05-05 20:16 | 50.20359 | 8.97139 | 5878 ft | 238 kts | 153° |
| 2026-05-05 20:16 | 50.18906 | 8.98425 | 5807 ft | 242 kts | 154° |
| 2026-05-05 20:16 | 50.17403 | 8.99539 | 5805 ft | 236 kts | 171° |
| 2026-05-05 20:16 | 50.15799 | 8.99454 | 5811 ft | 231 kts | 202° |
| 2026-05-05 20:17 | 50.14590 | 8.97969 | 5811 ft | 224 kts | 240° |
| 2026-05-05 20:17 | 50.14199 | 8.95719 | 5810 ft | 210 kts | 263° |
| 2026-05-05 20:17 | 50.14006 | 8.93543 | 5810 ft | 196 kts | 257° |
| 2026-05-05 20:17 | 50.13623 | 8.91297 | 5784 ft | 235 kts | 252° |
| 2026-05-05 20:18 | 50.13067 | 8.88882 | 5483 ft | 236 kts | 249° |
| 2026-05-05 20:18 | 50.12496 | 8.86514 | 5131 ft | 228 kts | 249° |
| 2026-05-05 20:18 | 50.11967 | 8.84292 | 4809 ft | 210 kts | 249° |
| 2026-05-05 20:18 | 50.11477 | 8.82237 | 4512 ft | 195 kts | 249° |
| 2026-05-05 20:19 | 50.11019 | 8.80318 | 4227 ft | 182 kts | 249° |
| 2026-05-05 20:19 | 50.10592 | 8.78529 | 3968 ft | 171 kts | 249° |
| 2026-05-05 20:19 | 50.10179 | 8.76799 | 3742 ft | 172 kts | 249° |
| 2026-05-05 20:19 | 50.09763 | 8.75057 | 3499 ft | 171 kts | 249° |
| 2026-05-05 20:20 | 50.09349 | 8.73322 | 3252 ft | 170 kts | 249° |
| 2026-05-05 20:20 | 50.08936 | 8.71594 | 3019 ft | 171 kts | 249° |
| 2026-05-05 20:20 | 50.08527 | 8.69879 | 2793 ft | 170 kts | 249° |
| 2026-05-05 20:20 | 50.08114 | 8.68151 | 2538 ft | 170 kts | 249° |
| 2026-05-05 20:21 | 50.07703 | 8.66431 | 2296 ft | 170 kts | 249° |
| 2026-05-05 20:21 | 50.07294 | 8.64715 | 2050 ft | 168 kts | 249° |
| 2026-05-05 20:21 | 50.06881 | 8.62988 | 1841 ft | 168 kts | 249° |
| 2026-05-05 20:21 | 50.06488 | 8.61344 | 1575 ft | 155 kts | 249° |
| 2026-05-05 20:22 | 50.06127 | 8.59833 | 1352 ft | 144 kts | 249° |
| 2026-05-05 20:22 | 50.05784 | 8.58400 | 1136 ft | 143 kts | 249° |
| 2026-05-05 20:22 | 50.05435 | 8.56940 | 924 ft | 143 kts | 249° |
| 2026-05-05 20:22 | 50.05088 | 8.55488 | 707 ft | 143 kts | 249° |
| 2026-05-05 20:23 | 50.04742 | 8.54043 | 506 ft | 142 kts | 249° |
| 2026-05-05 20:23 | 50.04407 | 8.52604 | 351 ft | 138 kts | 249° |
| 2026-05-05 20:23 | 50.04161 | 8.51649 | 331 ft | 51 kts | 233° |
| 2026-05-05 20:23 | 50.04007 | 8.51410 | 328 ft | 28 kts | 220° |
| 2026-05-05 20:24 | 50.03983 | 8.51379 | 331 ft | 0 kts | 219° |
| 2026-05-05 20:24 | 50.03983 | 8.51378 | 331 ft | 1 kts | 218° |
| 2026-05-05 20:25 | 50.03951 | 8.51368 | 332 ft | 6 kts | 176° |
| 2026-05-05 20:25 | 50.03914 | 8.51462 | 335 ft | 16 kts | 77° |
| 2026-05-05 20:25 | 50.03957 | 8.51663 | 333 ft | 23 kts | 71° |
| 2026-05-05 20:25 | 50.04014 | 8.51891 | 334 ft | 18 kts | 70° |
| 2026-05-05 20:26 | 50.04058 | 8.52081 | 339 ft | 19 kts | 70° |
| 2026-05-05 20:26 | 50.04104 | 8.52275 | 352 ft | 18 kts | 69° |
| 2026-05-05 20:26 | 50.04150 | 8.52458 | 349 ft | 19 kts | 69° |
| 2026-05-05 20:26 | 50.04181 | 8.52586 | 353 ft | 19 kts | 69° |
| 2026-05-05 20:27 | 50.04228 | 8.52786 | 356 ft | 20 kts | 70° |
| 2026-05-05 20:27 | 50.04271 | 8.52970 | 355 ft | 18 kts | 68° |
| 2026-05-05 20:27 | 50.04315 | 8.53155 | 363 ft | 18 kts | 71° |
| 2026-05-05 20:27 | 50.04354 | 8.53321 | 366 ft | 15 kts | 70° |
| 2026-05-05 20:28 | 50.04387 | 8.53461 | 373 ft | 13 kts | 72° |
| 2026-05-05 20:28 | 50.04401 | 8.53601 | 375 ft | 14 kts | 84° |
| 2026-05-05 20:28 | 50.04413 | 8.53773 | 375 ft | 18 kts | 84° |
| 2026-05-05 20:28 | 50.04426 | 8.53972 | 375 ft | 20 kts | 84° |
| 2026-05-05 20:29 | 50.04440 | 8.54184 | 375 ft | 20 kts | 84° |
| 2026-05-05 20:29 | 50.04454 | 8.54401 | 372 ft | 19 kts | 88° |
| 2026-05-05 20:29 | 50.04415 | 8.54624 | 365 ft | 23 kts | 124° |
| 2026-05-05 20:29 | 50.04323 | 8.54762 | 357 ft | 0 kts | 150° |
| 2026-05-05 20:30 | 50.04278 | 8.54790 | 358 ft | 3 kts | 159° |
| 2026-05-05 20:30 | 50.04255 | 8.54804 | 355 ft | 8 kts | 159° |
| 2026-05-05 20:30 | 50.04177 | 8.54851 | 359 ft | 13 kts | 159° |
| 2026-05-05 20:30 | 50.04093 | 8.54900 | 356 ft | 13 kts | 159° |
| 2026-05-05 20:31 | 50.04021 | 8.54981 | 354 ft | 13 kts | 102° |
| 2026-05-05 20:31 | 50.04045 | 8.55126 | 357 ft | 15 kts | 71° |
| 2026-05-05 20:31 | 50.04085 | 8.55296 | 361 ft | 19 kts | 68° |
| 2026-05-05 20:31 | 50.04133 | 8.55488 | 353 ft | 20 kts | 70° |
| 2026-05-05 20:32 | 50.04184 | 8.55706 | 360 ft | 22 kts | 69° |
| 2026-05-05 20:32 | 50.04220 | 8.55852 | 354 ft | 14 kts | 69° |
| 2026-05-05 20:32 | 50.04287 | 8.55948 | 354 ft | 15 kts | 356° |
| 2026-05-05 20:32 | 50.04396 | 8.55930 | 362 ft | 17 kts | 8° |
| 2026-05-05 20:33 | 50.04515 | 8.55987 | 356 ft | 19 kts | 19° |
| 2026-05-05 20:33 | 50.04577 | 8.56136 | 358 ft | 18 kts | 68° |
| 2026-05-05 20:33 | 50.04626 | 8.56328 | 357 ft | 19 kts | 69° |
| 2026-05-05 20:33 | 50.04666 | 8.56504 | 360 ft | 14 kts | 68° |
| 2026-05-05 20:34 | 50.04696 | 8.56535 | 362 ft | 3 kts | 353° |
| 2026-05-05 20:34 | 50.04748 | 8.56513 | 360 ft | 10 kts | 340° |
| 2026-05-05 20:34 | 50.04777 | 8.56496 | 361 ft | 1 kts | 340° |
| 2026-05-05 20:34 | 50.04779 | 8.56495 | 361 ft | 0 kts | 340° |